sensor_id;sensor_type;location;lat;lon;timestamp;temperature;humidity
16955;DHT22;8594;52.052;8.354;2023-04-15T00:01:17;10.20;99.90
16955;DHT22;8594;52.052;8.354;2023-04-15T00:03:44;10.30;99.90
16955;DHT22;8594;52.052;8.354;2023-04-15T00:06:11;10.10;99.90
16955;DHT22;8594;52.052;8.354;2023-04-15T00:08:39;9.90;99.90
16955;DHT22;8594;52.052;8.354;2023-04-15T00:11:07;10.00;99.90
16955;DHT22;8594;52.052;8.354;2023-04-15T00:13:33;10.20;99.90
16955;DHT22;8594;52.052;8.354;2023-04-15T00:16:00;10.10;99.90
16955;DHT22;8594;52.052;8.354;2023-04-15T00:18:27;10.20;99.90
16955;DHT22;8594;52.052;8.354;2023-04-15T00:20:56;10.20;99.90
16955;DHT22;8594;52.052;8.354;2023-04-15T00:23:23;10.20;99.90
16955;DHT22;8594;52.052;8.354;2023-04-15T00:25:50;10.20;99.90
16955;DHT22;8594;52.052;8.354;2023-04-15T00:28:18;10.10;99.90
16955;DHT22;8594;52.052;8.354;2023-04-15T00:30:45;10.20;99.90
16955;DHT22;8594;52.052;8.354;2023-04-15T00:33:13;10.30;99.90
16955;DHT22;8594;52.052;8.354;2023-04-15T00:35:40;10.30;99.90
16955;DHT22;8594;52.052;8.354;2023-04-15T00:38:07;10.30;99.90
16955;DHT22;8594;52.052;8.354;2023-04-15T00:40:35;10.30;99.90
16955;DHT22;8594;52.052;8.354;2023-04-15T00:43:02;10.40;99.90
16955;DHT22;8594;52.052;8.354;2023-04-15T00:45:31;10.30;99.90
16955;DHT22;8594;52.052;8.354;2023-04-15T00:47:59;10.20;99.90
16955;DHT22;8594;52.052;8.354;2023-04-15T00:50:26;10.10;99.90
16955;DHT22;8594;52.052;8.354;2023-04-15T00:52:53;10.10;99.90
16955;DHT22;8594;52.052;8.354;2023-04-15T00:55:19;10.10;99.90
16955;DHT22;8594;52.052;8.354;2023-04-15T00:57:47;9.90;99.90
16955;DHT22;8594;52.052;8.354;2023-04-15T01:00:14;9.80;99.90
16955;DHT22;8594;52.052;8.354;2023-04-15T01:02:42;9.80;99.90
16955;DHT22;8594;52.052;8.354;2023-04-15T01:05:09;9.80;99.90
16955;DHT22;8594;52.052;8.354;2023-04-15T01:07:36;9.90;99.90
16955;DHT22;8594;52.052;8.354;2023-04-15T01:10:03;9.90;99.90
16955;DHT22;8594;52.052;8.354;2023-04-15T01:12:31;9.60;99.90
16955;DHT22;8594;52.052;8.354;2023-04-15T01:14:59;9.30;99.90
16955;DHT22;8594;52.052;8.354;2023-04-15T01:17:27;9.40;99.90
16955;DHT22;8594;52.052;8.354;2023-04-15T01:19:56;9.40;99.90
16955;DHT22;8594;52.052;8.354;2023-04-15T01:22:24;9.50;99.90
16955;DHT22;8594;52.052;8.354;2023-04-15T01:24:56;9.60;99.90
16955;DHT22;8594;52.052;8.354;2023-04-15T01:27:30;10.00;99.90
16955;DHT22;8594;52.052;8.354;2023-04-15T01:29:57;9.80;99.90
16955;DHT22;8594;52.052;8.354;2023-04-15T01:32:24;9.90;99.90
16955;DHT22;8594;52.052;8.354;2023-04-15T01:34:51;10.10;99.90
16955;DHT22;8594;52.052;8.354;2023-04-15T01:37:18;10.10;99.90
16955;DHT22;8594;52.052;8.354;2023-04-15T01:39:45;10.10;99.90
16955;DHT22;8594;52.052;8.354;2023-04-15T01:42:12;10.10;99.90
16955;DHT22;8594;52.052;8.354;2023-04-15T01:44:40;10.00;99.90
16955;DHT22;8594;52.052;8.354;2023-04-15T01:47:06;9.90;99.90
16955;DHT22;8594;52.052;8.354;2023-04-15T01:49:33;9.80;99.90
16955;DHT22;8594;52.052;8.354;2023-04-15T01:52:00;9.80;99.90
16955;DHT22;8594;52.052;8.354;2023-04-15T01:54:27;9.80;99.90
16955;DHT22;8594;52.052;8.354;2023-04-15T01:56:54;9.70;99.90
16955;DHT22;8594;52.052;8.354;2023-04-15T01:59:21;9.50;99.90
16955;DHT22;8594;52.052;8.354;2023-04-15T02:01:49;9.50;99.90
16955;DHT22;8594;52.052;8.354;2023-04-15T02:04:16;9.50;99.90
16955;DHT22;8594;52.052;8.354;2023-04-15T02:06:43;9.40;99.90
16955;DHT22;8594;52.052;8.354;2023-04-15T02:09:10;9.40;99.90
16955;DHT22;8594;52.052;8.354;2023-04-15T02:11:37;9.30;99.90
16955;DHT22;8594;52.052;8.354;2023-04-15T02:14:04;9.20;99.90
16955;DHT22;8594;52.052;8.354;2023-04-15T02:16:32;9.20;99.90
16955;DHT22;8594;52.052;8.354;2023-04-15T02:19:00;9.10;99.90
16955;DHT22;8594;52.052;8.354;2023-04-15T02:21:28;9.20;99.90
16955;DHT22;8594;52.052;8.354;2023-04-15T02:23:55;9.30;99.90
16955;DHT22;8594;52.052;8.354;2023-04-15T02:26:22;9.20;99.90
16955;DHT22;8594;52.052;8.354;2023-04-15T02:28:49;9.30;99.90
16955;DHT22;8594;52.052;8.354;2023-04-15T02:31:16;9.40;99.90
16955;DHT22;8594;52.052;8.354;2023-04-15T02:33:43;9.30;99.90
16955;DHT22;8594;52.052;8.354;2023-04-15T02:36:12;9.30;99.90
16955;DHT22;8594;52.052;8.354;2023-04-15T02:38:39;9.20;99.90
16955;DHT22;8594;52.052;8.354;2023-04-15T02:41:07;9.10;99.90
16955;DHT22;8594;52.052;8.354;2023-04-15T02:43:34;9.10;99.90
16955;DHT22;8594;52.052;8.354;2023-04-15T02:46:02;9.00;99.90
16955;DHT22;8594;52.052;8.354;2023-04-15T02:48:29;9.10;99.90
16955;DHT22;8594;52.052;8.354;2023-04-15T02:51:11;9.10;99.90
16955;DHT22;8594;52.052;8.354;2023-04-15T02:53:41;9.00;99.90
16955;DHT22;8594;52.052;8.354;2023-04-15T02:56:08;8.90;99.90
16955;DHT22;8594;52.052;8.354;2023-04-15T02:58:36;9.00;99.90
16955;DHT22;8594;52.052;8.354;2023-04-15T03:01:02;9.00;99.90
16955;DHT22;8594;52.052;8.354;2023-04-15T03:03:29;9.10;99.90
16955;DHT22;8594;52.052;8.354;2023-04-15T03:05:56;9.20;99.90
16955;DHT22;8594;52.052;8.354;2023-04-15T03:08:24;9.00;99.90
16955;DHT22;8594;52.052;8.354;2023-04-15T03:10:51;9.00;99.90
16955;DHT22;8594;52.052;8.354;2023-04-15T03:13:19;8.90;99.90
16955;DHT22;8594;52.052;8.354;2023-04-15T03:15:46;8.70;99.90
16955;DHT22;8594;52.052;8.354;2023-04-15T03:18:13;8.30;99.90
16955;DHT22;8594;52.052;8.354;2023-04-15T03:20:40;8.40;99.90
16955;DHT22;8594;52.052;8.354;2023-04-15T03:23:06;8.50;99.90
16955;DHT22;8594;52.052;8.354;2023-04-15T03:25:35;8.60;99.90
16955;DHT22;8594;52.052;8.354;2023-04-15T03:28:02;8.60;99.90
16955;DHT22;8594;52.052;8.354;2023-04-15T03:30:29;8.40;99.90
16955;DHT22;8594;52.052;8.354;2023-04-15T03:32:56;8.50;99.90
16955;DHT22;8594;52.052;8.354;2023-04-15T03:35:23;8.40;99.90
16955;DHT22;8594;52.052;8.354;2023-04-15T03:37:50;8.40;99.90
16955;DHT22;8594;52.052;8.354;2023-04-15T03:40:16;8.60;99.90
16955;DHT22;8594;52.052;8.354;2023-04-15T03:42:45;8.60;99.90
16955;DHT22;8594;52.052;8.354;2023-04-15T03:45:11;8.70;99.90
16955;DHT22;8594;52.052;8.354;2023-04-15T03:47:38;8.70;99.90
16955;DHT22;8594;52.052;8.354;2023-04-15T03:50:06;8.60;99.90
16955;DHT22;8594;52.052;8.354;2023-04-15T03:52:33;8.60;99.90
16955;DHT22;8594;52.052;8.354;2023-04-15T03:55:00;8.60;99.90
16955;DHT22;8594;52.052;8.354;2023-04-15T03:57:27;8.70;99.90
16955;DHT22;8594;52.052;8.354;2023-04-15T03:59:55;8.80;99.90
16955;DHT22;8594;52.052;8.354;2023-04-15T04:02:21;8.70;99.90
16955;DHT22;8594;52.052;8.354;2023-04-15T04:04:48;8.80;99.90
16955;DHT22;8594;52.052;8.354;2023-04-15T04:07:15;8.90;99.90
16955;DHT22;8594;52.052;8.354;2023-04-15T04:09:42;8.80;99.90
16955;DHT22;8594;52.052;8.354;2023-04-15T04:12:09;8.80;99.90
16955;DHT22;8594;52.052;8.354;2023-04-15T04:14:36;8.90;99.90
16955;DHT22;8594;52.052;8.354;2023-04-15T04:17:04;8.90;99.90
16955;DHT22;8594;52.052;8.354;2023-04-15T04:19:31;8.90;99.90
16955;DHT22;8594;52.052;8.354;2023-04-15T04:21:57;9.00;99.90
16955;DHT22;8594;52.052;8.354;2023-04-15T04:24:24;9.00;99.90
16955;DHT22;8594;52.052;8.354;2023-04-15T04:26:51;9.00;99.90
16955;DHT22;8594;52.052;8.354;2023-04-15T04:29:18;8.90;99.90
16955;DHT22;8594;52.052;8.354;2023-04-15T04:31:45;8.70;99.90
16955;DHT22;8594;52.052;8.354;2023-04-15T04:34:14;8.50;99.90
16955;DHT22;8594;52.052;8.354;2023-04-15T04:36:41;8.40;99.90
16955;DHT22;8594;52.052;8.354;2023-04-15T04:39:08;8.50;99.90
16955;DHT22;8594;52.052;8.354;2023-04-15T04:41:34;8.60;99.90
16955;DHT22;8594;52.052;8.354;2023-04-15T04:44:01;8.60;99.90
16955;DHT22;8594;52.052;8.354;2023-04-15T04:46:28;8.30;99.90
16955;DHT22;8594;52.052;8.354;2023-04-15T04:48:55;8.30;99.90
16955;DHT22;8594;52.052;8.354;2023-04-15T04:51:23;8.20;99.90
16955;DHT22;8594;52.052;8.354;2023-04-15T04:53:50;8.20;99.90
16955;DHT22;8594;52.052;8.354;2023-04-15T04:56:17;8.30;99.90
16955;DHT22;8594;52.052;8.354;2023-04-15T04:58:44;8.40;99.90
16955;DHT22;8594;52.052;8.354;2023-04-15T05:01:11;8.40;99.90
16955;DHT22;8594;52.052;8.354;2023-04-15T05:03:38;8.40;99.90
16955;DHT22;8594;52.052;8.354;2023-04-15T05:06:05;8.40;99.90
16955;DHT22;8594;52.052;8.354;2023-04-15T05:08:34;8.30;99.90
16955;DHT22;8594;52.052;8.354;2023-04-15T05:11:01;8.30;99.90
16955;DHT22;8594;52.052;8.354;2023-04-15T05:13:28;8.40;99.90
16955;DHT22;8594;52.052;8.354;2023-04-15T05:15:55;8.50;99.90
16955;DHT22;8594;52.052;8.354;2023-04-15T05:18:22;8.50;99.90
16955;DHT22;8594;52.052;8.354;2023-04-15T05:20:49;8.80;99.90
16955;DHT22;8594;52.052;8.354;2023-04-15T05:23:16;9.10;99.90
16955;DHT22;8594;52.052;8.354;2023-04-15T05:25:44;9.10;99.90
16955;DHT22;8594;52.052;8.354;2023-04-15T05:28:11;8.70;99.90
16955;DHT22;8594;52.052;8.354;2023-04-15T05:30:38;8.80;99.90
16955;DHT22;8594;52.052;8.354;2023-04-15T05:33:05;8.70;99.90
16955;DHT22;8594;52.052;8.354;2023-04-15T05:35:32;8.70;99.90
16955;DHT22;8594;52.052;8.354;2023-04-15T05:37:59;8.70;99.90
16955;DHT22;8594;52.052;8.354;2023-04-15T05:40:26;8.70;99.90
16955;DHT22;8594;52.052;8.354;2023-04-15T05:42:54;8.80;99.90
16955;DHT22;8594;52.052;8.354;2023-04-15T05:45:21;8.80;99.90
16955;DHT22;8594;52.052;8.354;2023-04-15T05:47:47;8.70;99.90
16955;DHT22;8594;52.052;8.354;2023-04-15T05:50:18;8.80;99.90
16955;DHT22;8594;52.052;8.354;2023-04-15T05:52:45;8.60;99.90
16955;DHT22;8594;52.052;8.354;2023-04-15T05:55:12;8.50;99.90
16955;DHT22;8594;52.052;8.354;2023-04-15T05:57:39;8.50;99.90
16955;DHT22;8594;52.052;8.354;2023-04-15T06:00:09;8.60;99.90
16955;DHT22;8594;52.052;8.354;2023-04-15T06:02:37;8.70;99.90
16955;DHT22;8594;52.052;8.354;2023-04-15T06:05:04;8.70;99.90
16955;DHT22;8594;52.052;8.354;2023-04-15T06:07:34;8.90;99.90
16955;DHT22;8594;52.052;8.354;2023-04-15T06:10:01;8.90;99.90
16955;DHT22;8594;52.052;8.354;2023-04-15T06:12:28;8.90;99.90
16955;DHT22;8594;52.052;8.354;2023-04-15T06:14:55;8.80;99.90
16955;DHT22;8594;52.052;8.354;2023-04-15T06:17:23;9.00;99.90
16955;DHT22;8594;52.052;8.354;2023-04-15T06:19:50;9.00;99.90
16955;DHT22;8594;52.052;8.354;2023-04-15T06:22:20;9.20;99.90
16955;DHT22;8594;52.052;8.354;2023-04-15T06:24:46;8.80;99.90
16955;DHT22;8594;52.052;8.354;2023-04-15T06:27:13;8.70;99.90
16955;DHT22;8594;52.052;8.354;2023-04-15T06:29:40;8.80;99.90
16955;DHT22;8594;52.052;8.354;2023-04-15T06:32:07;8.70;99.90
16955;DHT22;8594;52.052;8.354;2023-04-15T06:34:35;8.50;99.90
16955;DHT22;8594;52.052;8.354;2023-04-15T06:37:02;8.40;99.90
16955;DHT22;8594;52.052;8.354;2023-04-15T06:39:29;8.60;99.90
16955;DHT22;8594;52.052;8.354;2023-04-15T06:41:55;8.60;99.90
16955;DHT22;8594;52.052;8.354;2023-04-15T06:44:22;8.50;99.90
16955;DHT22;8594;52.052;8.354;2023-04-15T06:46:49;8.30;99.90
16955;DHT22;8594;52.052;8.354;2023-04-15T06:49:16;8.30;99.90
16955;DHT22;8594;52.052;8.354;2023-04-15T06:51:44;8.40;99.90
16955;DHT22;8594;52.052;8.354;2023-04-15T06:54:11;8.10;99.90
16955;DHT22;8594;52.052;8.354;2023-04-15T06:56:38;8.20;99.90
16955;DHT22;8594;52.052;8.354;2023-04-15T06:59:06;8.30;99.90
16955;DHT22;8594;52.052;8.354;2023-04-15T07:01:33;8.10;99.90
16955;DHT22;8594;52.052;8.354;2023-04-15T07:03:59;8.20;99.90
16955;DHT22;8594;52.052;8.354;2023-04-15T07:06:26;8.10;99.90
16955;DHT22;8594;52.052;8.354;2023-04-15T07:08:54;8.20;99.90
16955;DHT22;8594;52.052;8.354;2023-04-15T07:11:21;8.30;99.90
16955;DHT22;8594;52.052;8.354;2023-04-15T07:13:48;8.40;99.90
16955;DHT22;8594;52.052;8.354;2023-04-15T07:16:15;8.30;99.90
16955;DHT22;8594;52.052;8.354;2023-04-15T07:18:42;8.50;99.90
16955;DHT22;8594;52.052;8.354;2023-04-15T07:21:09;8.40;99.90
16955;DHT22;8594;52.052;8.354;2023-04-15T07:23:36;8.40;99.90
16955;DHT22;8594;52.052;8.354;2023-04-15T07:26:05;8.40;99.90
16955;DHT22;8594;52.052;8.354;2023-04-15T07:28:31;8.40;99.90
16955;DHT22;8594;52.052;8.354;2023-04-15T07:30:59;8.40;99.90
16955;DHT22;8594;52.052;8.354;2023-04-15T07:33:26;8.30;99.90
16955;DHT22;8594;52.052;8.354;2023-04-15T07:35:53;8.30;99.90
16955;DHT22;8594;52.052;8.354;2023-04-15T07:38:21;8.60;99.90
16955;DHT22;8594;52.052;8.354;2023-04-15T07:40:47;8.50;99.90
16955;DHT22;8594;52.052;8.354;2023-04-15T07:43:16;8.60;99.90
16955;DHT22;8594;52.052;8.354;2023-04-15T07:45:44;8.50;99.90
16955;DHT22;8594;52.052;8.354;2023-04-15T07:48:11;8.50;99.90
16955;DHT22;8594;52.052;8.354;2023-04-15T07:50:38;8.60;99.90
16955;DHT22;8594;52.052;8.354;2023-04-15T07:53:05;8.60;99.90
16955;DHT22;8594;52.052;8.354;2023-04-15T07:55:32;8.60;99.90
16955;DHT22;8594;52.052;8.354;2023-04-15T07:57:59;8.70;99.90
16955;DHT22;8594;52.052;8.354;2023-04-15T08:00:27;8.70;99.90
16955;DHT22;8594;52.052;8.354;2023-04-15T08:02:56;8.60;99.90
16955;DHT22;8594;52.052;8.354;2023-04-15T08:05:23;8.50;99.90
16955;DHT22;8594;52.052;8.354;2023-04-15T08:07:51;8.70;99.90
16955;DHT22;8594;52.052;8.354;2023-04-15T08:10:17;8.70;99.90
16955;DHT22;8594;52.052;8.354;2023-04-15T08:12:44;8.80;99.90
16955;DHT22;8594;52.052;8.354;2023-04-15T08:15:13;8.90;99.90
16955;DHT22;8594;52.052;8.354;2023-04-15T08:17:42;9.00;99.90
16955;DHT22;8594;52.052;8.354;2023-04-15T08:20:10;8.70;99.90
16955;DHT22;8594;52.052;8.354;2023-04-15T08:22:37;8.90;99.90
16955;DHT22;8594;52.052;8.354;2023-04-15T08:25:05;9.00;99.90
16955;DHT22;8594;52.052;8.354;2023-04-15T08:27:32;8.90;99.90
16955;DHT22;8594;52.052;8.354;2023-04-15T08:29:58;9.00;99.90
16955;DHT22;8594;52.052;8.354;2023-04-15T08:32:26;9.10;99.90
16955;DHT22;8594;52.052;8.354;2023-04-15T08:34:54;9.00;99.90
16955;DHT22;8594;52.052;8.354;2023-04-15T08:37:22;8.90;99.90
16955;DHT22;8594;52.052;8.354;2023-04-15T08:39:49;8.80;99.90
16955;DHT22;8594;52.052;8.354;2023-04-15T08:42:18;8.80;99.90
16955;DHT22;8594;52.052;8.354;2023-04-15T08:44:49;8.80;99.90
16955;DHT22;8594;52.052;8.354;2023-04-15T08:47:19;8.80;99.90
16955;DHT22;8594;52.052;8.354;2023-04-15T08:49:47;8.90;99.90
16955;DHT22;8594;52.052;8.354;2023-04-15T08:52:19;8.90;99.90
16955;DHT22;8594;52.052;8.354;2023-04-15T08:54:47;8.80;99.90
16955;DHT22;8594;52.052;8.354;2023-04-15T08:57:14;8.70;99.90
16955;DHT22;8594;52.052;8.354;2023-04-15T08:59:42;8.70;99.90
16955;DHT22;8594;52.052;8.354;2023-04-15T09:02:10;8.80;99.90
16955;DHT22;8594;52.052;8.354;2023-04-15T09:04:37;8.90;99.90
16955;DHT22;8594;52.052;8.354;2023-04-15T09:07:04;8.80;99.90
16955;DHT22;8594;52.052;8.354;2023-04-15T09:09:32;8.90;99.90
16955;DHT22;8594;52.052;8.354;2023-04-15T09:12:01;8.90;99.90
16955;DHT22;8594;52.052;8.354;2023-04-15T09:14:28;8.90;99.90
16955;DHT22;8594;52.052;8.354;2023-04-15T09:16:57;8.90;99.90
16955;DHT22;8594;52.052;8.354;2023-04-15T09:19:25;9.10;99.90
16955;DHT22;8594;52.052;8.354;2023-04-15T09:21:53;9.20;99.90
16955;DHT22;8594;52.052;8.354;2023-04-15T09:24:22;9.00;99.90
16955;DHT22;8594;52.052;8.354;2023-04-15T09:26:53;9.20;99.90
16955;DHT22;8594;52.052;8.354;2023-04-15T09:29:24;9.10;99.90
16955;DHT22;8594;52.052;8.354;2023-04-15T09:31:51;9.10;99.90
16955;DHT22;8594;52.052;8.354;2023-04-15T09:34:18;9.10;99.90
16955;DHT22;8594;52.052;8.354;2023-04-15T09:36:53;9.00;99.90
16955;DHT22;8594;52.052;8.354;2023-04-15T09:39:22;9.10;99.90
16955;DHT22;8594;52.052;8.354;2023-04-15T09:42:06;9.20;99.90
16955;DHT22;8594;52.052;8.354;2023-04-15T09:44:34;9.30;99.90
16955;DHT22;8594;52.052;8.354;2023-04-15T09:47:01;9.20;99.90
16955;DHT22;8594;52.052;8.354;2023-04-15T09:49:28;9.00;99.90
16955;DHT22;8594;52.052;8.354;2023-04-15T09:51:58;9.10;99.90
16955;DHT22;8594;52.052;8.354;2023-04-15T09:54:33;9.10;99.90
16955;DHT22;8594;52.052;8.354;2023-04-15T09:57:06;9.20;99.90
16955;DHT22;8594;52.052;8.354;2023-04-15T09:59:34;9.20;99.90
16955;DHT22;8594;52.052;8.354;2023-04-15T10:02:03;9.00;99.90
16955;DHT22;8594;52.052;8.354;2023-04-15T10:04:34;9.20;99.90
16955;DHT22;8594;52.052;8.354;2023-04-15T10:07:03;9.30;99.90
16955;DHT22;8594;52.052;8.354;2023-04-15T10:09:31;9.20;99.90
16955;DHT22;8594;52.052;8.354;2023-04-15T10:11:59;9.30;99.90
16955;DHT22;8594;52.052;8.354;2023-04-15T10:14:27;9.30;99.90
16955;DHT22;8594;52.052;8.354;2023-04-15T10:17:00;9.20;99.90
16955;DHT22;8594;52.052;8.354;2023-04-15T10:19:30;9.10;99.90
16955;DHT22;8594;52.052;8.354;2023-04-15T10:22:01;9.20;99.90
16955;DHT22;8594;52.052;8.354;2023-04-15T10:24:50;9.10;99.90
16955;DHT22;8594;52.052;8.354;2023-04-15T10:27:20;9.20;99.90
16955;DHT22;8594;52.052;8.354;2023-04-15T10:29:52;9.40;99.90
16955;DHT22;8594;52.052;8.354;2023-04-15T10:32:20;9.30;99.90
16955;DHT22;8594;52.052;8.354;2023-04-15T10:34:53;9.40;99.90
16955;DHT22;8594;52.052;8.354;2023-04-15T10:37:33;9.50;99.90
16955;DHT22;8594;52.052;8.354;2023-04-15T10:40:23;9.30;99.90
16955;DHT22;8594;52.052;8.354;2023-04-15T10:42:57;9.30;99.90
16955;DHT22;8594;52.052;8.354;2023-04-15T10:45:31;9.20;99.90
16955;DHT22;8594;52.052;8.354;2023-04-15T10:48:01;9.30;99.90
16955;DHT22;8594;52.052;8.354;2023-04-15T10:50:33;9.40;99.90
16955;DHT22;8594;52.052;8.354;2023-04-15T10:53:04;9.50;99.90
16955;DHT22;8594;52.052;8.354;2023-04-15T10:55:34;9.40;99.90
16955;DHT22;8594;52.052;8.354;2023-04-15T10:58:02;9.50;99.90
16955;DHT22;8594;52.052;8.354;2023-04-15T11:01:02;9.50;99.90
16955;DHT22;8594;52.052;8.354;2023-04-15T11:03:39;9.40;99.90
16955;DHT22;8594;52.052;8.354;2023-04-15T11:06:17;9.40;99.90
16955;DHT22;8594;52.052;8.354;2023-04-15T11:08:55;9.40;99.90
16955;DHT22;8594;52.052;8.354;2023-04-15T11:12:05;9.40;99.90
16955;DHT22;8594;52.052;8.354;2023-04-15T11:14:39;9.50;99.90
16955;DHT22;8594;52.052;8.354;2023-04-15T11:17:32;9.50;99.90
16955;DHT22;8594;52.052;8.354;2023-04-15T11:20:14;9.40;99.90
16955;DHT22;8594;52.052;8.354;2023-04-15T11:22:46;9.30;99.90
16955;DHT22;8594;52.052;8.354;2023-04-15T11:25:21;9.30;99.90
16955;DHT22;8594;52.052;8.354;2023-04-15T11:27:53;9.30;99.90
16955;DHT22;8594;52.052;8.354;2023-04-15T11:30:23;9.30;99.90
16955;DHT22;8594;52.052;8.354;2023-04-15T11:32:54;9.30;99.90
16955;DHT22;8594;52.052;8.354;2023-04-15T11:35:24;9.40;99.90
16955;DHT22;8594;52.052;8.354;2023-04-15T11:37:51;9.40;99.90
16955;DHT22;8594;52.052;8.354;2023-04-15T11:40:22;9.40;99.90
16955;DHT22;8594;52.052;8.354;2023-04-15T11:43:03;9.40;99.90
16955;DHT22;8594;52.052;8.354;2023-04-15T11:45:31;9.30;99.90
16955;DHT22;8594;52.052;8.354;2023-04-15T11:48:06;9.40;99.90
16955;DHT22;8594;52.052;8.354;2023-04-15T11:50:34;9.40;99.90
16955;DHT22;8594;52.052;8.354;2023-04-15T11:53:03;9.50;99.90
16955;DHT22;8594;52.052;8.354;2023-04-15T11:55:40;9.40;99.90
16955;DHT22;8594;52.052;8.354;2023-04-15T11:58:10;9.40;99.90
16955;DHT22;8594;52.052;8.354;2023-04-15T12:00:39;9.50;99.90
16955;DHT22;8594;52.052;8.354;2023-04-15T12:03:17;9.50;99.90
16955;DHT22;8594;52.052;8.354;2023-04-15T12:06:08;9.60;99.90
16955;DHT22;8594;52.052;8.354;2023-04-15T12:08:57;9.60;99.90
16955;DHT22;8594;52.052;8.354;2023-04-15T12:11:29;9.50;99.90
16955;DHT22;8594;52.052;8.354;2023-04-15T12:14:12;9.50;99.90
16955;DHT22;8594;52.052;8.354;2023-04-15T12:16:47;9.40;99.90
16955;DHT22;8594;52.052;8.354;2023-04-15T12:19:21;9.40;99.90
16955;DHT22;8594;52.052;8.354;2023-04-15T12:21:50;9.50;99.90
16955;DHT22;8594;52.052;8.354;2023-04-15T12:24:20;9.50;99.90
16955;DHT22;8594;52.052;8.354;2023-04-15T12:26:49;9.50;99.90
16955;DHT22;8594;52.052;8.354;2023-04-15T12:29:17;9.50;99.90
16955;DHT22;8594;52.052;8.354;2023-04-15T12:31:50;9.50;99.90
16955;DHT22;8594;52.052;8.354;2023-04-15T12:34:25;9.50;99.90
16955;DHT22;8594;52.052;8.354;2023-04-15T12:36:54;9.50;99.90
16955;DHT22;8594;52.052;8.354;2023-04-15T12:39:22;9.50;99.90
16955;DHT22;8594;52.052;8.354;2023-04-15T12:41:49;9.60;99.90
16955;DHT22;8594;52.052;8.354;2023-04-15T12:44:16;9.70;99.90
16955;DHT22;8594;52.052;8.354;2023-04-15T12:46:44;9.80;99.90
16955;DHT22;8594;52.052;8.354;2023-04-15T12:49:11;9.60;99.90
16955;DHT22;8594;52.052;8.354;2023-04-15T12:51:41;9.40;99.90
16955;DHT22;8594;52.052;8.354;2023-04-15T12:54:09;9.60;99.90
16955;DHT22;8594;52.052;8.354;2023-04-15T12:56:36;9.50;99.90
16955;DHT22;8594;52.052;8.354;2023-04-15T12:59:03;9.70;99.90
16955;DHT22;8594;52.052;8.354;2023-04-15T13:01:32;9.60;99.90
16955;DHT22;8594;52.052;8.354;2023-04-15T13:04:09;9.60;99.90
16955;DHT22;8594;52.052;8.354;2023-04-15T13:06:42;9.60;99.90
16955;DHT22;8594;52.052;8.354;2023-04-15T13:09:09;9.60;99.90
16955;DHT22;8594;52.052;8.354;2023-04-15T13:11:36;9.80;99.90
16955;DHT22;8594;52.052;8.354;2023-04-15T13:14:04;9.60;99.90
16955;DHT22;8594;52.052;8.354;2023-04-15T13:16:33;9.70;99.90
16955;DHT22;8594;52.052;8.354;2023-04-15T13:19:00;9.60;99.90
16955;DHT22;8594;52.052;8.354;2023-04-15T13:21:28;9.50;99.90
16955;DHT22;8594;52.052;8.354;2023-04-15T13:23:58;9.60;99.90
16955;DHT22;8594;52.052;8.354;2023-04-15T13:26:25;9.60;99.90
16955;DHT22;8594;52.052;8.354;2023-04-15T13:28:52;9.60;99.90
16955;DHT22;8594;52.052;8.354;2023-04-15T13:31:19;9.40;99.90
16955;DHT22;8594;52.052;8.354;2023-04-15T13:33:45;9.30;99.90
16955;DHT22;8594;52.052;8.354;2023-04-15T13:36:12;9.30;99.90
16955;DHT22;8594;52.052;8.354;2023-04-15T13:38:39;9.30;99.90
16955;DHT22;8594;52.052;8.354;2023-04-15T13:41:07;9.30;99.90
16955;DHT22;8594;52.052;8.354;2023-04-15T13:43:34;9.20;99.90
16955;DHT22;8594;52.052;8.354;2023-04-15T13:46:01;9.20;99.90
16955;DHT22;8594;52.052;8.354;2023-04-15T13:48:28;9.20;99.90
16955;DHT22;8594;52.052;8.354;2023-04-15T13:50:55;9.30;99.90
16955;DHT22;8594;52.052;8.354;2023-04-15T13:53:21;9.30;99.90
16955;DHT22;8594;52.052;8.354;2023-04-15T13:55:48;9.30;99.90
16955;DHT22;8594;52.052;8.354;2023-04-15T13:58:16;9.30;99.90
16955;DHT22;8594;52.052;8.354;2023-04-15T14:00:43;9.30;99.90
16955;DHT22;8594;52.052;8.354;2023-04-15T14:03:10;9.40;99.90
16955;DHT22;8594;52.052;8.354;2023-04-15T14:05:37;9.30;99.90
16955;DHT22;8594;52.052;8.354;2023-04-15T14:08:04;9.30;99.90
16955;DHT22;8594;52.052;8.354;2023-04-15T14:10:30;9.40;99.90
16955;DHT22;8594;52.052;8.354;2023-04-15T14:12:57;9.40;99.90
16955;DHT22;8594;52.052;8.354;2023-04-15T14:15:25;9.40;99.90
16955;DHT22;8594;52.052;8.354;2023-04-15T14:17:52;9.30;99.90
16955;DHT22;8594;52.052;8.354;2023-04-15T14:20:19;9.40;99.90
16955;DHT22;8594;52.052;8.354;2023-04-15T14:22:46;9.30;99.90
16955;DHT22;8594;52.052;8.354;2023-04-15T14:25:13;9.30;99.90
16955;DHT22;8594;52.052;8.354;2023-04-15T14:27:40;9.50;99.90
16955;DHT22;8594;52.052;8.354;2023-04-15T14:30:08;9.60;99.90
16955;DHT22;8594;52.052;8.354;2023-04-15T14:32:36;9.60;99.90
16955;DHT22;8594;52.052;8.354;2023-04-15T14:35:04;9.40;99.90
16955;DHT22;8594;52.052;8.354;2023-04-15T14:37:31;9.50;99.90
16955;DHT22;8594;52.052;8.354;2023-04-15T14:39:58;9.50;99.90
16955;DHT22;8594;52.052;8.354;2023-04-15T14:42:25;9.40;99.90
16955;DHT22;8594;52.052;8.354;2023-04-15T14:44:52;9.50;99.90
16955;DHT22;8594;52.052;8.354;2023-04-15T14:47:18;9.50;99.90
16955;DHT22;8594;52.052;8.354;2023-04-15T14:49:47;9.50;99.90
16955;DHT22;8594;52.052;8.354;2023-04-15T14:52:13;9.50;99.90
16955;DHT22;8594;52.052;8.354;2023-04-15T14:54:40;9.50;99.90
16955;DHT22;8594;52.052;8.354;2023-04-15T14:57:07;9.40;99.90
16955;DHT22;8594;52.052;8.354;2023-04-15T14:59:34;9.50;99.90
16955;DHT22;8594;52.052;8.354;2023-04-15T15:02:01;9.40;99.90
16955;DHT22;8594;52.052;8.354;2023-04-15T15:04:28;9.40;99.90
16955;DHT22;8594;52.052;8.354;2023-04-15T15:06:58;9.30;99.90
16955;DHT22;8594;52.052;8.354;2023-04-15T15:09:25;9.50;99.90
16955;DHT22;8594;52.052;8.354;2023-04-15T15:11:52;9.40;99.90
16955;DHT22;8594;52.052;8.354;2023-04-15T15:14:19;9.30;99.90
16955;DHT22;8594;52.052;8.354;2023-04-15T15:16:46;9.30;99.90
16955;DHT22;8594;52.052;8.354;2023-04-15T15:19:13;9.30;99.90
16955;DHT22;8594;52.052;8.354;2023-04-15T15:21:40;9.40;99.90
16955;DHT22;8594;52.052;8.354;2023-04-15T15:24:08;9.50;99.90
16955;DHT22;8594;52.052;8.354;2023-04-15T15:26:35;9.50;99.90
16955;DHT22;8594;52.052;8.354;2023-04-15T15:29:02;9.40;99.90
16955;DHT22;8594;52.052;8.354;2023-04-15T15:31:29;9.50;99.90
16955;DHT22;8594;52.052;8.354;2023-04-15T15:33:56;9.50;99.90
16955;DHT22;8594;52.052;8.354;2023-04-15T15:36:23;9.60;99.90
16955;DHT22;8594;52.052;8.354;2023-04-15T15:38:52;9.50;99.90
16955;DHT22;8594;52.052;8.354;2023-04-15T15:41:20;9.60;99.90
16955;DHT22;8594;52.052;8.354;2023-04-15T15:43:47;9.50;99.90
16955;DHT22;8594;52.052;8.354;2023-04-15T15:46:14;9.50;99.90
16955;DHT22;8594;52.052;8.354;2023-04-15T15:48:41;9.70;99.90
16955;DHT22;8594;52.052;8.354;2023-04-15T15:51:07;9.60;99.90
16955;DHT22;8594;52.052;8.354;2023-04-15T15:53:34;9.50;99.90
16955;DHT22;8594;52.052;8.354;2023-04-15T15:56:01;9.60;99.90
16955;DHT22;8594;52.052;8.354;2023-04-15T15:58:30;9.50;99.90
16955;DHT22;8594;52.052;8.354;2023-04-15T16:00:57;9.50;99.90
16955;DHT22;8594;52.052;8.354;2023-04-15T16:03:24;9.50;99.90
16955;DHT22;8594;52.052;8.354;2023-04-15T16:05:51;9.60;99.90
16955;DHT22;8594;52.052;8.354;2023-04-15T16:08:18;9.50;99.90